createdAt,value
2019-04-07T00:00:27.806Z,73.11
2019-04-07T00:02:57.379Z,73.43
2019-04-07T00:05:26.827Z,72.87
2019-04-07T00:07:57.465Z,73.36
2019-04-07T00:10:27.219Z,72.88
2019-04-07T00:12:57.290Z,72.79
2019-04-07T00:15:26.875Z,72.87
2019-04-07T00:17:56.338Z,73.41
2019-04-07T00:20:25.838Z,73.35
2019-04-07T00:22:55.283Z,74.01
2019-04-07T00:25:25.120Z,74.44
2019-04-07T00:27:54.671Z,74.15
2019-04-07T00:30:24.175Z,73.71
2019-04-07T00:32:53.679Z,73.43
2019-04-07T00:35:30.500Z,73.27
2019-04-07T00:37:54.504Z,73.12
2019-04-07T00:40:24.107Z,73.32
2019-04-07T00:42:53.564Z,74.18
2019-04-07T00:45:23.058Z,74.60
2019-04-07T00:47:52.639Z,74.38
2019-04-07T00:50:22.088Z,74.66
2019-04-07T00:52:51.492Z,74.65
2019-04-07T00:55:21.018Z,75.09
2019-04-07T00:57:50.796Z,75.37
2019-04-07T01:00:22.020Z,75.25
2019-04-07T01:02:51.861Z,75.33
2019-04-07T01:05:33.736Z,75.42
2019-04-07T01:07:52.592Z,75.24
2019-04-07T01:10:22.070Z,75.44
2019-04-07T01:12:52.166Z,75.44
2019-04-07T01:15:21.747Z,75.22
2019-04-07T01:17:51.291Z,75.31
2019-04-07T01:20:20.720Z,75.36
2019-04-07T01:22:50.182Z,75.52
2019-04-07T01:25:20.299Z,75.49
2019-04-07T01:27:50.037Z,75.48
2019-04-07T01:30:19.978Z,75.82
2019-04-07T01:32:49.948Z,76.20
2019-04-07T01:35:20.157Z,76.40
2019-04-07T01:37:49.802Z,76.00
2019-04-07T01:40:19.853Z,75.73
2019-04-07T01:43:00.055Z,75.78
2019-04-07T01:45:47.301Z,76.45
2019-04-07T01:48:34.674Z,76.31
2019-04-07T01:51:11.873Z,77.20
2019-04-07T01:53:42.917Z,77.20
2019-04-07T01:56:30.451Z,77.20
2019-04-07T01:59:02.623Z,77.70
2019-04-07T02:01:36.468Z,78.17
2019-04-07T02:04:08.102Z,77.52
2019-04-07T02:06:55.434Z,77.50
2019-04-07T02:09:26.503Z,77.14
2019-04-07T02:12:03.460Z,78.30
2019-04-07T02:14:46.695Z,78.56
2019-04-07T02:17:23.415Z,78.49
2019-04-07T02:19:54.952Z,78.20
2019-04-07T02:22:42.575Z,78.92
2019-04-07T02:25:14.026Z,78.61
2019-04-07T02:27:45.890Z,79.09
2019-04-07T02:30:23.695Z,79.30
2019-04-07T02:32:58.285Z,79.79
2019-04-07T02:38:32.445Z,79.89
2019-04-07T02:41:04.265Z,80.28
2019-04-07T02:46:51.670Z,80.45
2019-04-07T02:49:39.292Z,80.65
2019-04-07T02:52:14.485Z,81.05
2019-04-07T02:55:02.575Z,80.83
2019-04-07T02:57:33.965Z,80.82
2019-04-07T03:00:09.354Z,80.63
2019-04-07T03:02:46.312Z,80.79
2019-04-07T03:05:20.948Z,80.88
2019-04-07T03:08:04.478Z,81.30
2019-04-07T03:10:51.475Z,81.11
2019-04-07T03:13:29.070Z,81.12
2019-04-07T03:16:12.241Z,81.10
2019-04-07T03:18:44.280Z,81.30
2019-04-07T03:21:15.753Z,81.90
2019-04-07T03:23:47.506Z,81.58
2019-04-07T03:26:33.849Z,81.70
2019-04-07T03:29:05.313Z,81.58
2019-04-07T03:31:53.664Z,81.95
2019-04-07T03:34:44.776Z,81.93
2019-04-07T03:37:34.305Z,81.76
2019-04-07T03:40:13.850Z,81.80
2019-04-07T03:42:55.189Z,81.70
2019-04-07T03:45:32.558Z,81.74
2019-04-07T03:48:07.074Z,81.79
2019-04-07T03:50:54.809Z,82.08
2019-04-07T03:53:35.690Z,81.89
2019-04-07T03:59:20.053Z,82.38
2019-04-07T04:01:54.155Z,82.61
2019-04-07T04:07:22.865Z,82.09
2019-04-07T04:10:01.598Z,82.16
2019-04-07T04:15:18.361Z,82.26
2019-04-07T04:17:48.217Z,82.28
2019-04-07T04:20:17.768Z,82.14
2019-04-07T04:22:47.322Z,82.44
2019-04-07T04:25:17.237Z,82.93
2019-04-07T04:27:46.828Z,82.67
2019-04-07T04:30:16.879Z,82.66
2019-04-07T04:32:46.500Z,82.59
2019-04-07T04:35:16.939Z,82.77
2019-04-07T04:37:51.444Z,83.07
2019-04-07T04:40:17.926Z,83.02
2019-04-07T04:42:48.559Z,82.83
2019-04-07T04:45:18.103Z,83.05
2019-04-07T04:47:48.233Z,83.65
2019-04-07T04:50:18.409Z,82.74
2019-04-07T04:52:48.712Z,82.77
2019-04-07T04:55:18.898Z,82.26
2019-04-07T04:57:48.484Z,82.54
2019-04-07T05:00:18.794Z,83.09
2019-04-07T05:02:49.459Z,82.65
2019-04-07T05:05:19.050Z,82.01
2019-04-07T05:07:57.701Z,82.13
2019-04-07T05:10:19.829Z,82.01
2019-04-07T05:12:49.212Z,81.64
2019-04-07T05:15:18.661Z,82.29
2019-04-07T05:17:48.015Z,81.61
2019-04-07T05:20:17.486Z,81.17
2019-04-07T05:22:47.510Z,81.86
2019-04-07T05:25:17.403Z,81.69
2019-04-07T05:27:47.070Z,80.99
2019-04-07T05:30:16.833Z,81.26
2019-04-07T05:32:46.909Z,82.03
2019-04-07T05:35:16.514Z,81.54
2019-04-07T05:37:46.013Z,80.45
2019-04-07T05:40:15.583Z,79.64
2019-04-07T05:42:45.412Z,78.68
2019-04-07T05:45:15.173Z,78.95
2019-04-07T05:47:48.628Z,79.85
2019-04-07T05:50:16.581Z,79.89
2019-04-07T05:52:46.592Z,78.87
2019-04-07T05:55:20.615Z,78.39
2019-04-07T05:57:48.503Z,78.36
2019-04-07T06:00:18.935Z,77.39
2019-04-07T06:02:49.138Z,77.40
2019-04-07T06:05:19.379Z,76.09
2019-04-07T06:07:49.097Z,76.79
2019-04-07T06:10:22.847Z,76.46
2019-04-07T06:12:49.804Z,77.40
2019-04-07T06:15:22.256Z,77.52
2019-04-07T06:17:52.205Z,76.61
2019-04-07T06:20:22.494Z,76.07
2019-04-07T06:22:53.627Z,77.11
2019-04-07T06:25:23.403Z,76.84
2019-04-07T06:27:53.243Z,75.35
2019-04-07T06:30:24.124Z,74.84
2019-04-07T06:32:53.828Z,74.24
2019-04-07T06:35:23.491Z,75.01
2019-04-07T06:37:53.140Z,72.99
2019-04-07T06:40:23.122Z,72.32
2019-04-07T06:42:53.345Z,70.96
2019-04-07T06:45:33.404Z,70.39
2019-04-07T06:48:09.179Z,70.60
2019-04-07T06:50:49.397Z,69.68
2019-04-07T06:53:17.467Z,70.41
2019-04-07T06:55:46.098Z,69.71
2019-04-07T06:58:33.218Z,67.88
2019-04-07T07:01:04.662Z,67.81
2019-04-07T07:03:51.480Z,68.25
2019-04-07T07:06:29.446Z,68.35
2019-04-07T07:09:07.302Z,67.57
2019-04-07T07:11:55.279Z,67.91
2019-04-07T07:14:44.969Z,68.34
2019-04-07T07:17:31.256Z,66.13
2019-04-07T07:20:05.299Z,69.40
2019-04-07T07:22:49.459Z,66.71
2019-04-07T07:25:20.379Z,68.96
2019-04-07T07:27:50.055Z,67.26
2019-04-07T07:30:20.312Z,67.05
2019-04-07T07:32:50.771Z,67.84
2019-04-07T07:35:20.293Z,69.08
2019-04-07T07:37:50.038Z,69.05
2019-04-07T07:40:19.614Z,68.68
2019-04-07T07:42:50.960Z,69.61
2019-04-07T07:45:20.583Z,69.33
2019-04-07T07:47:53.246Z,68.92
2019-04-07T07:50:21.260Z,67.70
2019-04-07T07:52:53.356Z,67.73
2019-04-07T07:55:22.007Z,66.33
2019-04-07T07:57:55.499Z,66.30
2019-04-07T08:00:22.855Z,66.81
2019-04-07T08:02:53.454Z,69.37
2019-04-07T08:05:23.874Z,65.88
2019-04-07T08:07:54.057Z,65.25
2019-04-07T08:10:25.361Z,67.34
2019-04-07T08:12:54.945Z,67.97
2019-04-07T08:15:29.670Z,67.14
2019-04-07T08:17:56.299Z,67.44
2019-04-07T08:20:25.886Z,66.68
2019-04-07T08:22:56.096Z,68.57
2019-04-07T08:25:26.639Z,68.12
2019-04-07T08:27:57.285Z,67.55
2019-04-07T08:30:27.203Z,66.91
2019-04-07T08:32:58.596Z,66.53
2019-04-07T08:35:29.805Z,67.31
2019-04-07T08:37:59.757Z,66.46
2019-04-07T08:40:29.434Z,65.60
2019-04-07T08:42:59.398Z,65.77
2019-04-07T08:45:31.672Z,66.93
2019-04-07T08:48:00.771Z,67.68
2019-04-07T08:50:31.034Z,65.83
2019-04-07T08:53:00.565Z,66.81
2019-04-07T08:55:30.901Z,66.52
2019-04-07T08:58:02.484Z,65.38
2019-04-07T09:00:33.609Z,65.42
2019-04-07T09:03:10.569Z,63.68
2019-04-07T09:05:34.419Z,64.39
2019-04-07T09:08:06.074Z,64.46
2019-04-07T09:10:37.183Z,65.38
2019-04-07T09:13:09.264Z,65.93
2019-04-07T09:15:43.587Z,65.54
2019-04-07T09:18:19.195Z,65.70
2019-04-07T09:20:53.237Z,64.00
2019-04-07T09:23:27.567Z,63.20
2019-04-07T09:26:16.085Z,65.64
2019-04-07T09:28:53.431Z,65.80
2019-04-07T09:31:23.294Z,65.97
2019-04-07T09:33:55.084Z,65.70
2019-04-07T09:36:31.595Z,65.77
2019-04-07T09:39:03.768Z,68.87
2019-04-07T09:41:52.647Z,65.38
2019-04-07T09:44:30.869Z,65.90
2019-04-07T09:47:04.309Z,67.40
2019-04-07T09:49:35.440Z,67.13
2019-04-07T09:52:23.385Z,67.09
2019-04-07T09:55:01.042Z,66.40
2019-04-07T09:57:39.782Z,68.00
2019-04-07T10:00:14.500Z,65.33
2019-04-07T10:02:49.144Z,66.13
2019-04-07T10:05:20.129Z,68.07
2019-04-07T10:08:11.977Z,67.29
2019-04-07T10:10:49.797Z,65.37
2019-04-07T10:13:27.447Z,64.57
2019-04-07T10:16:02.279Z,66.92
2019-04-07T10:18:50.862Z,64.65
2019-04-07T10:21:21.995Z,67.09
2019-04-07T10:23:53.036Z,66.96
2019-04-07T10:26:37.973Z,66.77
2019-04-07T10:29:18.714Z,65.66
2019-04-07T10:31:56.586Z,64.13
2019-04-07T10:34:30.943Z,63.52
2019-04-07T10:37:08.273Z,62.13
2019-04-07T10:39:43.221Z,61.41
2019-04-07T10:42:23.635Z,62.65
2019-04-07T10:44:54.701Z,63.53
2019-04-07T10:47:26.052Z,60.45
2019-04-07T10:50:07.208Z,64.44
2019-04-07T10:52:52.094Z,64.10
2019-04-07T10:55:23.107Z,64.84
2019-04-07T10:58:10.673Z,64.72
2019-04-07T11:00:45.366Z,62.26
2019-04-07T11:03:33.064Z,63.28
2019-04-07T11:06:13.759Z,62.99
2019-04-07T11:08:56.746Z,63.34
2019-04-07T11:11:31.454Z,64.37
2019-04-07T11:14:05.841Z,63.79
2019-04-07T11:16:37.678Z,61.96
2019-04-07T11:21:47.746Z,63.16
2019-04-07T11:24:24.723Z,62.66
2019-04-07T11:26:59.325Z,61.86
2019-04-07T11:29:33.736Z,61.52
2019-04-07T11:32:05.571Z,61.96
2019-04-07T11:34:51.630Z,61.85
2019-04-07T11:37:25.400Z,64.60
2019-04-07T11:39:59.051Z,65.01
2019-04-07T11:42:37.031Z,64.95
2019-04-07T11:45:10.206Z,61.67
2019-04-07T11:47:50.927Z,63.68
2019-04-07T11:50:34.357Z,63.95
2019-04-07T11:53:11.545Z,65.44
2019-04-07T11:55:52.257Z,63.99
2019-04-07T11:58:39.834Z,64.56
2019-04-07T12:01:14.824Z,64.99
2019-04-07T12:03:52.152Z,64.98
2019-04-07T12:06:38.441Z,65.00
2019-04-07T12:09:25.920Z,63.28
2019-04-07T12:12:03.731Z,63.64
2019-04-07T12:14:38.495Z,63.85
2019-04-07T12:17:18.864Z,64.68
2019-04-07T12:19:57.147Z,63.49
2019-04-07T12:22:29.045Z,64.77
2019-04-07T12:25:12.531Z,63.16
2019-04-07T12:27:47.145Z,64.20
2019-04-07T12:30:22.517Z,64.10
2019-04-07T12:32:59.767Z,64.12
2019-04-07T12:35:50.929Z,64.40
2019-04-07T12:38:22.841Z,63.06
2019-04-07T12:41:16.583Z,65.60
2019-04-07T12:44:01.725Z,64.46
2019-04-07T12:46:33.260Z,64.39
2019-04-07T12:49:06.747Z,64.39
2019-04-07T12:51:52.401Z,64.98
2019-04-07T12:54:28.815Z,65.45
2019-04-07T12:57:02.565Z,65.23
2019-04-07T12:59:33.641Z,64.33
2019-04-07T13:02:11.433Z,65.81
2019-04-07T13:04:59.702Z,64.59
2019-04-07T13:07:40.320Z,66.00
2019-04-07T13:10:26.852Z,65.33
2019-04-07T13:13:07.993Z,64.89
2019-04-07T13:18:37.804Z,65.92
2019-04-07T13:21:22.978Z,65.13
2019-04-07T13:23:52.678Z,65.98
2019-04-07T13:26:41.215Z,64.82
2019-04-07T13:29:12.931Z,65.90
2019-04-07T13:31:44.128Z,64.39
2019-04-07T13:34:21.155Z,65.48
2019-04-07T13:37:08.049Z,65.39
2019-04-07T13:39:44.853Z,65.81
2019-04-07T13:42:31.236Z,67.51
2019-04-07T13:45:03.964Z,65.67
2019-04-07T13:47:42.260Z,66.33
2019-04-07T13:50:30.034Z,67.00
2019-04-07T13:53:16.484Z,67.36
2019-04-07T13:55:47.613Z,66.51
2019-04-07T13:58:37.003Z,66.80
2019-04-07T14:01:21.094Z,65.30
2019-04-07T14:04:02.420Z,63.39
2019-04-07T14:06:33.992Z,63.70
2019-04-07T14:09:22.890Z,62.64
2019-04-07T14:12:06.384Z,62.99
2019-04-07T14:14:45.937Z,63.00
2019-04-07T14:17:35.219Z,64.03
2019-04-07T14:20:11.900Z,64.24
2019-04-07T14:22:43.014Z,63.29
2019-04-07T14:25:26.770Z,63.90
2019-04-07T14:28:14.401Z,62.65
2019-04-07T14:31:02.096Z,63.81
2019-04-07T14:33:49.441Z,64.97
2019-04-07T14:36:23.329Z,65.17
2019-04-07T14:38:55.891Z,66.61
2019-04-07T14:41:33.284Z,66.54
2019-04-07T14:44:21.422Z,66.04
2019-04-07T14:47:08.884Z,66.55
2019-04-07T14:49:56.281Z,67.06
2019-04-07T14:52:28.258Z,68.43
2019-04-07T14:55:15.650Z,67.27
2019-04-07T15:00:49.113Z,67.43
2019-04-07T15:03:18.816Z,68.58
2019-04-07T15:08:31.935Z,68.11
2019-04-07T15:11:04.719Z,68.91
2019-04-07T15:13:34.326Z,68.32
2019-04-07T15:16:04.165Z,69.11
2019-04-07T15:18:33.919Z,69.12
2019-04-07T15:21:03.603Z,68.35
2019-04-07T15:23:33.491Z,69.18
2019-04-07T15:26:03.426Z,69.80
2019-04-07T15:28:34.965Z,69.40
2019-04-07T15:31:04.469Z,69.47
2019-04-07T15:33:34.413Z,69.83
2019-04-07T15:36:07.650Z,70.27
2019-04-07T15:38:40.311Z,70.49
2019-04-07T15:41:15.309Z,71.30
2019-04-07T15:43:41.148Z,70.10
2019-04-07T15:46:10.683Z,70.69
2019-04-07T15:48:40.342Z,70.36
2019-04-07T15:51:09.873Z,71.43
2019-04-07T15:53:40.215Z,71.02
2019-04-07T15:56:13.050Z,69.93
2019-04-07T15:58:41.959Z,69.94
2019-04-07T16:01:13.873Z,70.13
2019-04-07T16:03:47.682Z,70.44
2019-04-07T16:06:16.305Z,69.99
2019-04-07T16:08:46.692Z,71.43
2019-04-07T16:11:17.661Z,71.22
2019-04-07T16:13:47.724Z,71.24
2019-04-07T16:16:17.759Z,71.41
2019-04-07T16:18:47.337Z,70.60
2019-04-07T16:21:18.058Z,71.63
2019-04-07T16:23:50.218Z,71.71
2019-04-07T16:26:19.701Z,71.36
2019-04-07T16:28:51.972Z,71.33
2019-04-07T16:31:24.257Z,71.04
2019-04-07T16:33:54.051Z,71.25
2019-04-07T16:36:25.461Z,71.34
2019-04-07T16:39:00.377Z,72.10
2019-04-07T16:41:29.346Z,72.89
2019-04-07T16:43:59.006Z,73.42
2019-04-07T16:46:28.477Z,72.19
2019-04-07T16:48:58.722Z,72.76
2019-04-07T16:51:30.681Z,73.00
2019-04-07T16:54:00.332Z,72.97
2019-04-07T16:56:29.870Z,73.24
2019-04-07T16:59:01.308Z,72.75
2019-04-07T17:01:31.421Z,73.25
2019-04-07T17:04:01.032Z,73.46
2019-04-07T17:06:34.691Z,73.61
2019-04-07T17:09:02.507Z,73.58
2019-04-07T17:11:32.359Z,73.92
2019-04-07T17:14:03.223Z,74.11
2019-04-07T17:16:33.478Z,74.55
2019-04-07T17:19:05.952Z,74.02
2019-04-07T17:21:41.160Z,74.63
2019-04-07T17:24:12.055Z,75.43
2019-04-07T17:26:44.170Z,75.67
2019-04-07T17:29:17.137Z,76.20
2019-04-07T17:31:45.607Z,75.76
2019-04-07T17:34:15.677Z,74.50
2019-04-07T17:36:48.480Z,74.88
2019-04-07T17:39:37.732Z,75.61
2019-04-07T17:42:06.345Z,75.35
2019-04-07T17:47:25.925Z,75.79
2019-04-07T17:50:04.252Z,76.28
2019-04-07T17:52:40.392Z,75.94
2019-04-07T17:55:28.040Z,76.68
2019-04-07T17:58:07.896Z,77.07
2019-04-07T18:00:56.443Z,77.63
2019-04-07T18:03:30.285Z,78.46
2019-04-07T18:06:11.166Z,78.22
2019-04-07T18:09:07.859Z,78.53
2019-04-07T18:11:35.063Z,77.86
2019-04-07T18:14:15.888Z,78.29
2019-04-07T18:16:52.809Z,78.51
2019-04-07T18:19:36.292Z,79.29
2019-04-07T18:22:08.173Z,79.31
2019-04-07T18:24:46.085Z,78.63
2019-04-07T18:27:21.136Z,79.05
2019-04-07T18:29:52.773Z,78.37
2019-04-07T18:32:32.973Z,78.91
2019-04-07T18:35:07.564Z,78.99
2019-04-07T18:37:55.772Z,79.69
2019-04-07T18:40:46.375Z,79.10
2019-04-07T18:43:21.403Z,79.41
2019-04-07T18:46:05.128Z,79.41
2019-04-07T18:54:21.390Z,78.15
2019-04-07T18:57:09.834Z,78.62
2019-04-07T18:59:42.981Z,78.70
2019-04-07T19:02:16.431Z,79.27
2019-04-07T19:04:50.103Z,79.42
2019-04-07T19:07:22.530Z,79.25
2019-04-07T19:10:16.463Z,79.21
2019-04-07T19:18:30.806Z,80.54
2019-04-07T19:21:20.430Z,80.69
2019-04-07T19:24:17.091Z,80.23
2019-04-07T19:27:11.891Z,79.98
2019-04-07T19:29:44.265Z,80.31
2019-04-07T19:32:20.449Z,80.99
2019-04-07T19:34:57.233Z,80.21
2019-04-07T19:37:34.662Z,80.64
2019-04-07T19:40:09.808Z,80.67
2019-04-07T19:42:43.979Z,81.00
2019-04-07T19:45:28.810Z,81.13
2019-04-07T19:48:10.490Z,81.69
2019-04-07T19:50:42.564Z,81.54
2019-04-07T19:53:15.064Z,81.91
2019-04-07T19:55:56.847Z,82.07
2019-04-07T19:58:36.121Z,81.90
2019-04-07T20:01:06.500Z,82.13
2019-04-07T20:03:47.325Z,82.23
2019-04-07T20:06:23.123Z,82.08
2019-04-07T20:09:11.308Z,82.15
2019-04-07T20:11:51.466Z,82.43
2019-04-07T20:14:46.595Z,82.72
2019-04-07T20:17:29.489Z,82.88
2019-04-07T20:22:41.826Z,83.43
2019-04-07T20:25:15.887Z,83.57
2019-04-07T20:28:02.306Z,83.21
2019-04-07T20:33:41.442Z,83.82
2019-04-07T20:36:19.339Z,83.82
2019-04-07T20:38:45.371Z,83.73
2019-04-07T20:41:17.088Z,83.62
2019-04-07T20:46:34.508Z,83.86
2019-04-07T20:49:15.932Z,84.16
2019-04-07T20:52:03.152Z,83.92
2019-04-07T20:54:50.901Z,83.91
2019-04-07T20:57:24.841Z,84.26
2019-04-07T21:00:03.483Z,84.21
2019-04-07T21:02:35.072Z,84.03
2019-04-07T21:05:25.712Z,84.21
2019-04-07T21:10:58.954Z,84.16
2019-04-07T21:13:30.149Z,84.43
2019-04-07T21:16:23.666Z,84.54
2019-04-07T21:19:04.246Z,84.68
2019-04-07T21:21:34.621Z,84.58
2019-04-07T21:24:21.882Z,84.57
2019-04-07T21:27:10.087Z,84.64
2019-04-07T21:29:47.905Z,84.50
2019-04-07T21:32:34.109Z,84.11
2019-04-07T21:35:05.290Z,83.87
2019-04-07T21:37:45.085Z,83.71
2019-04-07T21:40:15.485Z,83.74
2019-04-07T21:42:48.293Z,83.67
2019-04-07T21:45:32.673Z,83.31
2019-04-07T21:48:07.388Z,83.35
2019-04-07T21:50:41.129Z,83.28
2019-04-07T21:53:12.113Z,82.89
2019-04-07T21:55:44.302Z,83.21
2019-04-07T21:58:16.583Z,83.31
2019-04-07T22:01:02.848Z,82.99
2019-04-07T22:03:39.445Z,83.18
2019-04-07T22:06:12.040Z,82.99
2019-04-07T22:08:45.345Z,83.24
2019-04-07T22:11:14.298Z,83.12
2019-04-07T22:13:43.849Z,83.00
2019-04-07T22:16:14.234Z,83.09
2019-04-07T22:18:44.948Z,82.93
2019-04-07T22:21:14.927Z,82.80
2019-04-07T22:23:44.484Z,82.99
2019-04-07T22:26:17.795Z,83.22
2019-04-07T22:28:45.126Z,83.37
2019-04-07T22:31:16.915Z,83.10
2019-04-07T22:33:46.643Z,82.98
2019-04-07T22:36:16.750Z,83.33
2019-04-07T22:38:46.260Z,83.00
2019-04-07T22:41:15.695Z,83.17
2019-04-07T22:43:47.842Z,83.47
2019-04-07T22:46:21.326Z,83.77
2019-04-07T22:48:48.041Z,83.59
2019-04-07T22:51:17.608Z,83.86
2019-04-07T22:53:47.596Z,84.36
2019-04-07T22:56:18.068Z,83.83
2019-04-07T22:58:48.555Z,83.71
2019-04-07T23:01:18.615Z,83.83
2019-04-07T23:03:48.145Z,83.49
2019-04-07T23:06:17.623Z,83.28
2019-04-07T23:08:47.216Z,83.57
2019-04-07T23:11:16.686Z,83.48
2019-04-07T23:13:47.186Z,83.94
2019-04-07T23:16:17.924Z,83.96
2019-04-07T23:18:48.055Z,84.02
2019-04-07T23:21:17.505Z,83.86
2019-04-07T23:23:46.968Z,83.89
2019-04-07T23:26:16.414Z,84.24
2019-04-07T23:28:47.089Z,84.54
2019-04-07T23:31:17.067Z,84.83
2019-04-07T23:33:46.668Z,84.73
2019-04-07T23:36:16.157Z,84.77
2019-04-07T23:38:45.618Z,84.92
2019-04-07T23:41:15.915Z,84.88
2019-04-07T23:43:45.981Z,84.05
2019-04-07T23:46:23.968Z,83.82
2019-04-07T23:48:47.602Z,84.27
2019-04-07T23:51:17.250Z,84.47
2019-04-07T23:54:31.442Z,84.79
2019-04-07T23:57:00.934Z,84.68
2019-04-07T23:59:30.538Z,85.20
